METAR AND TAF INFORMATION
METAR FOR LGMK
ADDS - METARS form results

(1535 UTC 19 May 2019)
Data provider http://aviationweather.gov/metar/data/
 
METAR text: LGMK 191520Z 11014G29KT 9999 FEW030 21/12 Q1010
Conditions at: LGMK (MIKONOS ISLAND , GR) observed 1520 UTC 19 May 2019
Temperature: 21.0°C (70°F)
Dewpoint: 12.0°C (54°F) [RH = 56%]
Pressure (altimeter): 29.82 inches Hg (1010.0 mb)
Winds: from the ESE (110 degrees) at 16 MPH (14 knots; 7.2 m/s)
gusting to 33 MPH (29 knots; 14.9 m/s)
Visibility: 6 or more miles (10+ km)
Ceiling: at least 12,000 feet AGL
Clouds: few clouds at 3000 feet AGL
Weather: no significant weather observed at this time

METAR text: LGMK 191450Z 11011G21KT 9999 FEW030 21/13 Q1010
Conditions at: LGMK (MIKONOS ISLAND , GR) observed 1450 UTC 19 May 2019
Temperature: 21.0°C (70°F)
Dewpoint: 13.0°C (55°F) [RH = 60%]
Pressure (altimeter): 29.82 inches Hg (1010.0 mb)
Winds: from the ESE (110 degrees) at 13 MPH (11 knots; 5.7 m/s)
gusting to 24 MPH (21 knots; 10.8 m/s)
Visibility: 6 or more miles (10+ km)
Ceiling: at least 12,000 feet AGL
Clouds: few clouds at 3000 feet AGL
Weather: no significant weather observed at this time

Forecast for: LGMK (MIKONOS ISLAND , GR)
Text: TAF LGMK 191400Z 1915/1924 15016G26KT 9999 FEW020 SCT040
Forecast period: 1500 to 2200 UTC 19 May 2019
Forecast type: FROM: standard forecast or significant change
Winds: from the SSE (150 degrees) at 18 MPH (16 knots; 8.2 m/s)
gusting to 30 MPH (26 knots; 13.4 m/s)
Visibility: 6 or more miles 10+ km)
Ceiling: at least 12,000 feet AGL
Clouds: few clouds at 2000 feet AGL
scattered clouds at 4000 feet AGL
Weather: no significant weather forecast for this period
Text: BECMG 1922/1924 25015KT
Forecast period: 2200 UTC 19 May 2019 to 0000 UTC 20 May 2019
Forecast type: BECOMING: Conditions expected to become as follows by 0000 UTC 20 May 2019
Winds: from the WSW (250 degrees) at 17 MPH (15 knots; 7.7 m/s)
Visibility: 6 or more miles 10+ km)
Ceiling: at least 12,000 feet AGL
Clouds: few clouds at 2000 feet AGL
scattered clouds at 4000 feet AGL
Weather: no significant weather forecast for this period

 ΧΑΡΤΗΣ ΑΕΡΟΔΡΟΜΙΟΥ

 RUNWAY INFORMATION
Διάδρομος 16 Runway length 6244 ft Runway width 98 ft
Runway elevation 395 ft Runway displaced threshold 0 ft Runway heading 160
Διάδρομος 34 Runway length 6244 ft Runway width 98 ft
Runway elevation 388 ft Runway displaced threshold 0 ft Runway heading 340

 ΣΥΧΝΟΤΗΤΕΣ ΑΕΡΟΔΡΟΜΙΟΥ
Τύπος A/G Όνομα RDO Συχνότητα 563.7 MHZ
Τύπος APP Όνομα APP Συχνότητα 118.75 MHZ
Τύπος TWR Όνομα TWR Συχνότητα 118.75 MHZ

 AIRPORT NEAR NAVIGATION AIDS
Τύπος VOR-DME Όνομα Mikonos Συχνότητα 110000 KHZ
Τύπος NDB Όνομα Mikonos Συχνότητα 401 KHZ



Hellenic Air Force Virtual - All rights reserved 2019 - Powered by VAM